Time;durP1;ratioP1;P1;durP2;ratioP2;P2;SDS_P1;SDS_P2;PMS_P1;PMS_P2;Temp;Humidity;BMP_temperature;BMP_pressure;BME280_temperature;BME280_humidity;BME280_pressure;Samples;Min_cycle;Max_cycle;Signal;HPM_P1;HPM_P2
2023/03/08 00:00:02;;;;;;;;;;;;;;;;;;5015128;28;19996;-87
2023/03/08 00:02:27;;;;;;;;;;;;;;;;;;5015489;28;20373;-88
2023/03/08 00:04:54;;;;;;;;;;;;;;;;;;5015559;28;19929;-88
2023/03/08 00:07:19;;;;;;;;;;;;;;;;;;5015601;28;19936;-87
2023/03/08 00:09:45;;;;;;;;;;;;;;;;;;5015449;28;19921;-87
2023/03/08 00:12:10;;;;;;;;;;;;;;;;;;5015477;28;19921;-87
2023/03/08 00:14:36;;;;;;;;;;;;;;;;;;4997752;28;19957;-87
2023/03/08 00:17:01;;;;;;;;;;;;;;;;;;5015337;28;20428;-88
2023/03/08 00:19:27;;;;;;;;;;;;;;;;;;5015289;28;19917;-87
2023/03/08 00:21:52;;;;;;;;;;;;;;;;;;5015158;28;19925;-87
2023/03/08 00:24:18;;;;;;;;;;;;;;;;;;4997397;28;19929;-87
2023/03/08 00:26:44;;;;;;;;;;;;;;;;;;5015025;28;20381;-87
2023/03/08 00:29:09;;;;;;;;;;;;;;;;;;4997552;28;19925;-87
2023/03/08 00:31:35;;;;;;;;;;;;;;;;;;5015080;28;19925;-87
2023/03/08 00:34:00;;;;;;;;;;;;;;;;;;5015083;28;19922;-87
2023/03/08 00:36:25;;;;;;;;;;;;;;;;;;5014906;28;19918;-87
2023/03/08 00:38:51;;;;;;;;;;;;;;;;;;5014794;28;19917;-87
2023/03/08 00:41:17;;;;;;;;;;;;;;;;;;5014879;28;19917;-87
2023/03/08 00:43:44;;;;;;;;;;;;;;;;;;4997359;28;19929;-88
2023/03/08 00:46:10;;;;;;;;;;;;;;;;;;4997129;28;19922;-87
2023/03/08 00:48:35;;;;;;;;;;;;;;;;;;5014690;28;19918;-87
2023/03/08 00:51:01;;;;;;;;;;;;;;;;;;5014800;28;20316;-87
2023/03/08 00:53:26;;;;;;;;;;;;;;;;;;5014707;28;19924;-86
2023/03/08 00:55:53;;;;;;;;;;;;;;;;;;5014523;28;19928;-87
2023/03/08 00:58:19;;;;;;;;;;;;;;;;;;5014480;28;19924;-88
2023/03/08 01:00:44;;;;;;;;;;;;;;;;;;5014494;28;20008;-88
2023/03/08 01:03:10;;;;;;;;;;;;;;;;;;4997248;28;19917;-87
2023/03/08 01:05:42;;;;;;;;;;;;;;;;;;5014410;28;19925;-87
2023/03/08 01:08:08;;;;;;;;;;;;;;;;;;5014262;28;19918;-87
2023/03/08 01:10:34;;;;;;;;;;;;;;;;;;4996680;28;19928;-87
2023/03/08 01:13:00;;;;;;;;;;;;;;;;;;4995991;28;20297;-87
2023/03/08 01:15:26;;;;;;;;;;;;;;;;;;5014279;28;19917;-87
2023/03/08 01:17:51;;;;;;;;;;;;;;;;;;4996598;28;19918;-87
2023/03/08 01:20:16;;;;;;;;;;;;;;;;;;5014607;28;19924;-88
2023/03/08 01:22:42;;;;;;;;;;;;;;;;;;5014207;28;20393;-88
2023/03/08 01:25:08;;;;;;;;;;;;;;;;;;4996361;28;19917;-87
2023/03/08 01:27:33;;;;;;;;;;;;;;;;;;4996408;28;19977;-87
2023/03/08 01:29:58;;;;;;;;;;;;;;;;;;4996185;28;19924;-87
2023/03/08 01:32:24;;;;;;;;;;;;;;;;;;4996323;28;19921;-87
2023/03/08 01:34:49;;;;;;;;;;;;;;;;;;4996396;28;19917;-86
2023/03/08 01:37:15;;;;;;;;;;;;;;;;;;5013775;28;19957;-87
2023/03/08 01:39:40;;;;;;;;;;;;;;;;;;4996298;28;19929;-88
2023/03/08 01:42:06;;;;;;;;;;;;;;;;;;5013872;28;19928;-88
2023/03/08 01:44:50;;;;;;;;;;;;;;;;;;4996190;28;19921;-88
2023/03/08 01:47:24;;;;;;;;;;;;;;;;;;4996044;28;19963;-88
2023/03/08 01:49:50;;;;;;;;;;;;;;;;;;5014095;28;19917;-89
2023/03/08 01:52:16;;;;;;;;;;;;;;;;;;5013661;28;19917;-86
2023/03/08 01:54:46;;;;;;;;;;;;;;;;;;5013686;28;19930;-87
2023/03/08 01:57:15;;;;;;;;;;;;;;;;;;5013765;28;20361;-88
2023/03/08 01:59:41;;;;;;;;;;;;;;;;;;5013662;28;19918;-87
2023/03/08 02:02:06;;;;;;;;;;;;;;;;;;4996243;28;19968;-87
2023/03/08 02:04:31;;;;;;;;;;;;;;;;;;5014054;28;19918;-88
2023/03/08 02:06:57;;;;;;;;;;;;;;;;;;4996458;28;20357;-87
2023/03/08 02:09:23;;;;;;;;;;;;;;;;;;5013742;28;19944;-87
2023/03/08 02:11:48;;;;;;;;;;;;;;;;;;5013700;28;19921;-87
2023/03/08 02:14:14;;;;;;;;;;;;;;;;;;5013511;28;19921;-87
2023/03/08 02:16:39;;;;;;;;;;;;;;;;;;5013683;28;20431;-86
2023/03/08 02:19:08;;;;;;;;;;;;;;;;;;5032765;28;19908;-88
2023/03/08 02:21:33;;;;;;;;;;;;;;;;;;5036054;28;19985;-87
2023/03/08 02:24:05;;;;;;;;;;;;;;;;;;5040571;28;19917;-87
2023/03/08 02:26:31;;;;;;;;;;;;;;;;;;5042201;28;19908;-87
2023/03/08 02:28:56;;;;;;;;;;;;;;;;;;5016940;28;19922;-87
2023/03/08 02:31:22;;;;;;;;;;;;;;;;;;5002471;28;20024;-87
2023/03/08 02:33:47;;;;;;;;;;;;;;;;;;4999991;28;19923;-87
2023/03/08 02:36:13;;;;;;;;;;;;;;;;;;5017331;28;20360;-86
2023/03/08 02:38:38;;;;;;;;;;;;;;;;;;5017416;28;19981;-86
2023/03/08 02:41:04;;;;;;;;;;;;;;;;;;5000001;28;19924;-87
2023/03/08 02:43:29;;;;;;;;;;;;;;;;;;5017121;28;19918;-87
2023/03/08 02:45:55;;;;;;;;;;;;;;;;;;5017132;28;19925;-88
2023/03/08 02:48:20;;;;;;;;;;;;;;;;;;5017132;28;19967;-88
2023/03/08 02:50:46;;;;;;;;;;;;;;;;;;5017060;28;19928;-88
2023/03/08 02:53:11;;;;;;;;;;;;;;;;;;5016892;28;19922;-87
2023/03/08 02:55:37;;;;;;;;;;;;;;;;;;5016772;28;19921;-87
2023/03/08 02:58:03;;;;;;;;;;;;;;;;;;4999378;28;19924;-88
2023/03/08 03:00:29;;;;;;;;;;;;;;;;;;5016857;28;19917;-87
2023/03/08 03:02:54;;;;;;;;;;;;;;;;;;5016965;28;20005;-87
2023/03/08 03:05:19;;;;;;;;;;;;;;;;;;4999056;28;19940;-88
2023/03/08 03:07:45;;;;;;;;;;;;;;;;;;4998870;28;19917;-87
2023/03/08 03:10:11;;;;;;;;;;;;;;;;;;4998891;28;19921;-87
2023/03/08 03:12:36;;;;;;;;;;;;;;;;;;4998831;28;19922;-87
2023/03/08 03:15:02;;;;;;;;;;;;;;;;;;5016612;28;20385;-88
2023/03/08 03:17:28;;;;;;;;;;;;;;;;;;5016460;28;19921;-87
2023/03/08 03:19:53;;;;;;;;;;;;;;;;;;5016435;28;19921;-87
2023/03/08 03:22:19;;;;;;;;;;;;;;;;;;5016460;28;19924;-87
2023/03/08 03:24:44;;;;;;;;;;;;;;;;;;5016212;28;19972;-88
2023/03/08 03:27:09;;;;;;;;;;;;;;;;;;5016042;28;19917;-88
2023/03/08 03:29:36;;;;;;;;;;;;;;;;;;4998492;28;20386;-86
2023/03/08 03:32:01;;;;;;;;;;;;;;;;;;5016148;28;19965;-87
2023/03/08 03:34:26;;;;;;;;;;;;;;;;;;4998059;28;19957;-87
2023/03/08 03:36:52;;;;;;;;;;;;;;;;;;4998287;28;19964;-88
2023/03/08 03:39:17;;;;;;;;;;;;;;;;;;4998514;28;19956;-87
2023/03/08 03:41:42;;;;;;;;;;;;;;;;;;5016119;28;20032;-87
2023/03/08 03:44:08;;;;;;;;;;;;;;;;;;5016033;28;20288;-87
2023/03/08 03:46:33;;;;;;;;;;;;;;;;;;4998554;28;20711;-87
2023/03/08 03:48:59;;;;;;;;;;;;;;;;;;4998143;28;19922;-87
2023/03/08 03:51:24;;;;;;;;;;;;;;;;;;5016108;28;19921;-88
2023/03/08 03:53:49;;;;;;;;;;;;;;;;;;5015835;28;19957;-87
2023/03/08 03:56:20;;;;;;;;;;;;;;;;;;5015771;28;19930;-88
2023/03/08 03:58:45;;;;;;;;;;;;;;;;;;5015687;28;19928;-87
2023/03/08 04:01:13;;;;;;;;;;;;;;;;;;5015681;28;20016;-87
2023/03/08 04:03:39;;;;;;;;;;;;;;;;;;5015524;28;19923;-87
2023/03/08 04:06:08;;;;;;;;;;;;;;;;;;5015552;28;20004;-87
2023/03/08 04:08:34;;;;;;;;;;;;;;;;;;5015398;28;19961;-87
2023/03/08 04:10:59;;;;;;;;;;;;;;;;;;5015465;28;19922;-88
2023/03/08 04:13:25;;;;;;;;;;;;;;;;;;5015425;28;19920;-87
2023/03/08 04:15:50;;;;;;;;;;;;;;;;;;5015599;28;19922;-87
2023/03/08 04:18:16;;;;;;;;;;;;;;;;;;5015505;28;20036;-86
2023/03/08 04:20:43;;;;;;;;;;;;;;;;;;5015323;28;19921;-87
2023/03/08 04:23:08;;;;;;;;;;;;;;;;;;5015169;28;20448;-88
2023/03/08 04:25:33;;;;;;;;;;;;;;;;;;5014998;28;19921;-88
2023/03/08 04:27:59;;;;;;;;;;;;;;;;;;5014891;28;20053;-87
2023/03/08 04:30:24;;;;;;;;;;;;;;;;;;5010468;28;19930;-87
2023/03/08 04:32:50;;;;;;;;;;;;;;;;;;4988659;28;20052;-87
2023/03/08 04:35:15;;;;;;;;;;;;;;;;;;4997015;28;19917;-87
2023/03/08 04:37:44;;;;;;;;;;;;;;;;;;4995350;28;19924;-86
2023/03/08 04:40:09;;;;;;;;;;;;;;;;;;4998207;28;19933;-87
2023/03/08 04:42:35;;;;;;;;;;;;;;;;;;4991660;28;19921;-88
2023/03/08 04:45:00;;;;;;;;;;;;;;;;;;4987726;28;19926;-88
2023/03/08 04:50:02;;;;;;;;;;;;;;;;;;4993429;28;19925;-89
2023/03/08 04:52:27;;;;;;;;;;;;;;;;;;4995130;28;19944;-88
2023/03/08 04:55:02;;;;;;;;;;;;;;;;;;4995151;28;20394;-87
2023/03/08 04:57:28;;;;;;;;;;;;;;;;;;4993470;28;19957;-88
2023/03/08 04:59:53;;;;;;;;;;;;;;;;;;4984447;28;19934;-89
2023/03/08 05:02:20;;;;;;;;;;;;;;;;;;4986090;28;19958;-90
2023/03/08 05:04:45;;;;;;;;;;;;;;;;;;4989673;28;19949;-89
2023/03/08 05:07:11;;;;;;;;;;;;;;;;;;4984027;28;19921;-89
2023/03/08 05:09:36;;;;;;;;;;;;;;;;;;4994595;28;19929;-88
2023/03/08 05:12:01;;;;;;;;;;;;;;;;;;4996234;28;19918;-88
2023/03/08 05:14:27;;;;;;;;;;;;;;;;;;4994737;28;19918;-87
2023/03/08 05:16:56;;;;;;;;;;;;;;;;;;4994749;28;20131;-88
2023/03/08 05:19:22;;;;;;;;;;;;;;;;;;4977156;28;20070;-88
2023/03/08 05:21:47;;;;;;;;;;;;;;;;;;4994935;28;20353;-87
2023/03/08 05:24:12;;;;;;;;;;;;;;;;;;4994020;28;20412;-88
2023/03/08 05:26:38;;;;;;;;;;;;;;;;;;4979391;28;20004;-87
2023/03/08 05:29:05;;;;;;;;;;;;;;;;;;4993322;28;19922;-87
2023/03/08 05:31:30;;;;;;;;;;;;;;;;;;4994017;28;20060;-86
2023/03/08 05:33:56;;;;;;;;;;;;;;;;;;4994367;28;20381;-86
2023/03/08 05:36:21;;;;;;;;;;;;;;;;;;4994197;28;19928;-86
2023/03/08 05:38:47;;;;;;;;;;;;;;;;;;4994397;28;19922;-86
2023/03/08 05:41:13;;;;;;;;;;;;;;;;;;4976750;28;19968;-86
2023/03/08 05:43:39;;;;;;;;;;;;;;;;;;4994317;28;19973;-87
2023/03/08 05:46:05;;;;;;;;;;;;;;;;;;4976701;28;20242;-86
2023/03/08 05:48:32;;;;;;;;;;;;;;;;;;4976317;28;19943;-88
2023/03/08 05:50:57;;;;;;;;;;;;;;;;;;4993949;28;19925;-88
2023/03/08 05:53:23;;;;;;;;;;;;;;;;;;4994007;28;20274;-87
2023/03/08 05:55:48;;;;;;;;;;;;;;;;;;4993974;28;19962;-87
2023/03/08 05:58:14;;;;;;;;;;;;;;;;;;4993669;28;19926;-88
2023/03/08 06:00:40;;;;;;;;;;;;;;;;;;4993973;28;19968;-87
2023/03/08 06:03:05;;;;;;;;;;;;;;;;;;4993875;28;19925;-87
2023/03/08 06:05:31;;;;;;;;;;;;;;;;;;4993985;28;19922;-88
2023/03/08 06:07:56;;;;;;;;;;;;;;;;;;4993882;28;19961;-87
2023/03/08 06:10:22;;;;;;;;;;;;;;;;;;4993793;28;19980;-86
2023/03/08 06:12:47;;;;;;;;;;;;;;;;;;4993901;28;20362;-88
2023/03/08 06:15:13;;;;;;;;;;;;;;;;;;4976388;28;20357;-88
2023/03/08 06:17:39;;;;;;;;;;;;;;;;;;4993777;28;19925;-89
2023/03/08 06:20:04;;;;;;;;;;;;;;;;;;4993885;28;19921;-89
2023/03/08 06:22:30;;;;;;;;;;;;;;;;;;4994235;28;20001;-89
2023/03/08 06:24:55;;;;;;;;;;;;;;;;;;4994236;28;19969;-90
2023/03/08 06:27:21;;;;;;;;;;;;;;;;;;4976654;28;19969;-88
2023/03/08 06:29:47;;;;;;;;;;;;;;;;;;5003122;28;19925;-89
2023/03/08 06:32:13;;;;;;;;;;;;;;;;;;5011667;28;19917;-89
2023/03/08 06:34:38;;;;;;;;;;;;;;;;;;5014513;28;19975;-88
2023/03/08 06:37:04;;;;;;;;;;;;;;;;;;5018556;28;19906;-87
2023/03/08 06:39:30;;;;;;;;;;;;;;;;;;5016071;28;19922;-89
2023/03/08 06:41:56;;;;;;;;;;;;;;;;;;4999779;28;20285;-88
2023/03/08 06:44:21;;;;;;;;;;;;;;;;;;4993799;28;19928;-88
2023/03/08 06:46:47;;;;;;;;;;;;;;;;;;4976132;28;20332;-89
2023/03/08 06:49:12;;;;;;;;;;;;;;;;;;4993430;28;19926;-89
2023/03/08 06:51:38;;;;;;;;;;;;;;;;;;4993666;28;19925;-88
2023/03/08 06:54:03;;;;;;;;;;;;;;;;;;4993692;28;19926;-88
2023/03/08 06:56:28;;;;;;;;;;;;;;;;;;4993611;28;20322;-89
2023/03/08 06:58:54;;;;;;;;;;;;;;;;;;4993570;28;20301;-89
2023/03/08 07:01:19;;;;;;;;;;;;;;;;;;4993704;28;20008;-89
2023/03/08 07:03:47;;;;;;;;;;;;;;;;;;4993533;28;20316;-88
2023/03/08 07:06:13;;;;;;;;;;;;;;;;;;4993452;28;19917;-89
2023/03/08 07:08:38;;;;;;;;;;;;;;;;;;4993389;28;20017;-88
2023/03/08 07:11:05;;;;;;;;;;;;;;;;;;4995382;28;19934;-89
2023/03/08 07:13:30;;;;;;;;;;;;;;;;;;4996960;28;19972;-89
2023/03/08 07:15:56;;;;;;;;;;;;;;;;;;4997077;28;20332;-88
2023/03/08 07:18:21;;;;;;;;;;;;;;;;;;4996870;28;19925;-89
2023/03/08 07:20:56;;;;;;;;;;;;;;;;;;4979247;28;19973;-87
2023/03/08 07:23:22;;;;;;;;;;;;;;;;;;4996783;28;19925;-88
2023/03/08 07:25:47;;;;;;;;;;;;;;;;;;4979285;28;19918;-87
2023/03/08 07:28:12;;;;;;;;;;;;;;;;;;4996697;28;19965;-88
2023/03/08 07:30:38;;;;;;;;;;;;;;;;;;4996615;28;19953;-88
2023/03/08 07:33:03;;;;;;;;;;;;;;;;;;4996331;28;19921;-89
2023/03/08 07:35:29;;;;;;;;;;;;;;;;;;4978997;28;19913;-88
2023/03/08 07:37:54;;;;;;;;;;;;;;;;;;4978836;28;19925;-88
2023/03/08 07:40:20;;;;;;;;;;;;;;;;;;4996571;28;19941;-89
2023/03/08 07:42:45;;;;;;;;;;;;;;;;;;4996419;28;19917;-87
2023/03/08 07:45:11;;;;;;;;;;;;;;;;;;4996463;28;19928;-88
2023/03/08 07:47:36;;;;;;;;;;;;;;;;;;4996384;28;19913;-88
2023/03/08 07:50:02;;;;;;;;;;;;;;;;;;4996225;28;19922;-88
2023/03/08 07:52:28;;;;;;;;;;;;;;;;;;4996282;28;19918;-89
2023/03/08 07:54:53;;;;;;;;;;;;;;;;;;4996401;28;19929;-88
2023/03/08 07:57:19;;;;;;;;;;;;;;;;;;4996177;28;20394;-90
2023/03/08 07:59:44;;;;;;;;;;;;;;;;;;4996032;28;20305;-88
2023/03/08 08:02:13;;;;;;;;;;;;;;;;;;4996022;28;19972;-89
2023/03/08 08:04:39;;;;;;;;;;;;;;;;;;4996055;28;19925;-88
2023/03/08 08:07:04;;;;;;;;;;;;;;;;;;4996016;28;19918;-89
2023/03/08 08:09:30;;;;;;;;;;;;;;;;;;4995790;28;19918;-88
2023/03/08 08:11:55;;;;;;;;;;;;;;;;;;4995813;28;19924;-89
2023/03/08 08:14:21;;;;;;;;;;;;;;;;;;4995851;28;20285;-89
2023/03/08 08:16:46;;;;;;;;;;;;;;;;;;4978195;28;20365;-88
2023/03/08 08:19:13;;;;;;;;;;;;;;;;;;4978225;28;19925;-88
2023/03/08 08:21:39;;;;;;;;;;;;;;;;;;4995251;28;19972;-88
2023/03/08 08:24:04;;;;;;;;;;;;;;;;;;4995562;28;20346;-90
2023/03/08 08:26:30;;;;;;;;;;;;;;;;;;4977993;28;19941;-88
2023/03/08 08:28:55;;;;;;;;;;;;;;;;;;4995412;28;19964;-89
2023/03/08 08:31:22;;;;;;;;;;;;;;;;;;4995519;28;20014;-89
2023/03/08 08:33:48;;;;;;;;;;;;;;;;;;4995394;28;20005;-89
2023/03/08 08:36:15;;;;;;;;;;;;;;;;;;4995399;28;20378;-89
2023/03/08 08:38:42;;;;;;;;;;;;;;;;;;4994536;28;19918;-89
2023/03/08 08:41:08;;;;;;;;;;;;;;;;;;4995282;28;20389;-89
2023/03/08 08:43:34;;;;;;;;;;;;;;;;;;4977686;28;20022;-89
2023/03/08 08:46:00;;;;;;;;;;;;;;;;;;4977647;28;20284;-89
2023/03/08 08:48:26;;;;;;;;;;;;;;;;;;4974924;28;20018;-90
2023/03/08 08:50:52;;;;;;;;;;;;;;;;;;4995236;28;19965;-89
2023/03/08 08:53:18;;;;;;;;;;;;;;;;;;4995008;28;19918;-90
2023/03/08 08:55:44;;;;;;;;;;;;;;;;;;4995179;28;19922;-89
2023/03/08 08:58:09;;;;;;;;;;;;;;;;;;4995154;28;19917;-90
2023/03/08 09:00:35;;;;;;;;;;;;;;;;;;4975851;28;20270;-90
2023/03/08 09:03:01;;;;;;;;;;;;;;;;;;4994830;28;19921;-90
2023/03/08 09:05:26;;;;;;;;;;;;;;;;;;4977459;28;20289;-90
2023/03/08 09:07:52;;;;;;;;;;;;;;;;;;4977225;28;20345;-90
2023/03/08 09:10:18;;;;;;;;;;;;;;;;;;4977311;28;20289;-89
2023/03/08 09:12:43;;;;;;;;;;;;;;;;;;4977381;28;19928;-90
2023/03/08 09:15:10;;;;;;;;;;;;;;;;;;4976535;28;20285;-90
2023/03/08 09:17:36;;;;;;;;;;;;;;;;;;4976212;28;19922;-89
2023/03/08 09:20:04;;;;;;;;;;;;;;;;;;4994185;28;20392;-90
2023/03/08 09:22:29;;;;;;;;;;;;;;;;;;4994596;28;19925;-89
2023/03/08 09:24:55;;;;;;;;;;;;;;;;;;4994544;28;20301;-89
2023/03/08 09:27:20;;;;;;;;;;;;;;;;;;4977105;28;19917;-89
2023/03/08 09:29:45;;;;;;;;;;;;;;;;;;4993691;28;19922;-89
2023/03/08 09:32:11;;;;;;;;;;;;;;;;;;4994176;28;20286;-89
2023/03/08 09:34:36;;;;;;;;;;;;;;;;;;4993854;28;19921;-89
2023/03/08 09:37:02;;;;;;;;;;;;;;;;;;4994256;28;19918;-89
2023/03/08 09:39:27;;;;;;;;;;;;;;;;;;4994265;28;19977;-88
2023/03/08 09:41:54;;;;;;;;;;;;;;;;;;4976770;28;19926;-90
2023/03/08 09:44:44;;;;;;;;;;;;;;;;;;4993386;28;19922;-90
2023/03/08 09:47:10;;;;;;;;;;;;;;;;;;4994307;28;19925;-89
2023/03/08 09:49:37;;;;;;;;;;;;;;;;;;4976394;28;20366;-90
2023/03/08 09:52:08;;;;;;;;;;;;;;;;;;4994128;28;19925;-88
2023/03/08 09:54:37;;;;;;;;;;;;;;;;;;4976546;28;20381;-88
2023/03/08 09:57:05;;;;;;;;;;;;;;;;;;4976607;28;19925;-87
2023/03/08 09:59:32;;;;;;;;;;;;;;;;;;4976592;28;19981;-89
2023/03/08 10:02:13;;;;;;;;;;;;;;;;;;4976516;28;19918;-90
2023/03/08 10:04:46;;;;;;;;;;;;;;;;;;4976675;28;19973;-89
2023/03/08 10:07:12;;;;;;;;;;;;;;;;;;4994720;28;19917;-89
2023/03/08 10:09:40;;;;;;;;;;;;;;;;;;4993962;28;19925;-89
2023/03/08 10:12:25;;;;;;;;;;;;;;;;;;4994051;28;20386;-88
2023/03/08 10:14:53;;;;;;;;;;;;;;;;;;4994013;28;19922;-89
2023/03/08 10:17:21;;;;;;;;;;;;;;;;;;4993847;28;19918;-88
2023/03/08 10:20:00;;;;;;;;;;;;;;;;;;4993845;28;19929;-87
2023/03/08 10:22:28;;;;;;;;;;;;;;;;;;4994124;28;19918;-91
2023/03/08 10:24:56;;;;;;;;;;;;;;;;;;4976891;28;19918;-88
2023/03/08 10:27:26;;;;;;;;;;;;;;;;;;4976872;28;19918;-88
2023/03/08 10:29:56;;;;;;;;;;;;;;;;;;4994187;28;20278;-89
2023/03/08 10:32:22;;;;;;;;;;;;;;;;;;4994297;28;19931;-89
2023/03/08 10:34:47;;;;;;;;;;;;;;;;;;5014870;28;19917;-88
2023/03/08 10:37:13;;;;;;;;;;;;;;;;;;5001554;28;19926;-88
2023/03/08 10:39:51;;;;;;;;;;;;;;;;;;4999463;28;19922;-86
2023/03/08 10:42:18;;;;;;;;;;;;;;;;;;4993944;28;20013;-87
2023/03/08 10:44:52;;;;;;;;;;;;;;;;;;4995733;28;19922;-87
2023/03/08 10:47:20;;;;;;;;;;;;;;;;;;4980162;28;20396;-87
2023/03/08 10:49:46;;;;;;;;;;;;;;;;;;4997349;28;19976;-87
2023/03/08 10:52:27;;;;;;;;;;;;;;;;;;4980026;28;19918;-88
2023/03/08 10:55:09;;;;;;;;;;;;;;;;;;4997304;28;19925;-88
2023/03/08 10:57:34;;;;;;;;;;;;;;;;;;4980020;28;20304;-88
2023/03/08 11:00:15;;;;;;;;;;;;;;;;;;4998268;28;19918;-88
2023/03/08 11:02:41;;;;;;;;;;;;;;;;;;4980381;28;19917;-89
2023/03/08 11:05:17;;;;;;;;;;;;;;;;;;4979773;28;20285;-88
2023/03/08 11:07:49;;;;;;;;;;;;;;;;;;4979733;28;19925;-88
2023/03/08 11:10:16;;;;;;;;;;;;;;;;;;4979589;28;20013;-87
2023/03/08 11:12:42;;;;;;;;;;;;;;;;;;4997152;28;19918;-88
2023/03/08 11:15:18;;;;;;;;;;;;;;;;;;4996960;28;19913;-86
2023/03/08 11:17:52;;;;;;;;;;;;;;;;;;4997340;28;19918;-87
2023/03/08 11:20:47;;;;;;;;;;;;;;;;;;4979360;28;19914;-88
2023/03/08 11:23:21;;;;;;;;;;;;;;;;;;4984760;28;19918;-87
2023/03/08 11:26:07;;;;;;;;;;;;;;;;;;4979447;28;19917;-89
2023/03/08 11:28:39;;;;;;;;;;;;;;;;;;4968857;28;19917;-88
2023/03/08 11:31:20;;;;;;;;;;;;;;;;;;4997119;28;20392;-88
2023/03/08 11:34:04;;;;;;;;;;;;;;;;;;4996932;28;19917;-88
2023/03/08 11:36:37;;;;;;;;;;;;;;;;;;4996552;28;20017;-88
2023/03/08 11:39:05;;;;;;;;;;;;;;;;;;4996967;28;19918;-89
2023/03/08 11:41:40;;;;;;;;;;;;;;;;;;4979399;28;20433;-86
2023/03/08 11:44:15;;;;;;;;;;;;;;;;;;4979334;28;19921;-87
2023/03/08 11:46:40;;;;;;;;;;;;;;;;;;4996526;28;19961;-87
2023/03/08 11:49:18;;;;;;;;;;;;;;;;;;4978542;28;19922;-88
2023/03/08 11:51:44;;;;;;;;;;;;;;;;;;4978758;28;19929;-87
2023/03/08 11:54:18;;;;;;;;;;;;;;;;;;4996129;28;19918;-87
2023/03/08 11:56:47;;;;;;;;;;;;;;;;;;4995478;28;20301;-88
2023/03/08 11:59:12;;;;;;;;;;;;;;;;;;4995995;28;19917;-87
2023/03/08 12:01:40;;;;;;;;;;;;;;;;;;4996307;28;19946;-87
2023/03/08 12:04:12;;;;;;;;;;;;;;;;;;4977726;28;20344;-87
2023/03/08 12:06:39;;;;;;;;;;;;;;;;;;4984867;28;19922;-87
2023/03/08 12:09:23;;;;;;;;;;;;;;;;;;4978138;28;20381;-86
2023/03/08 12:12:07;;;;;;;;;;;;;;;;;;4991395;28;19964;-87
2023/03/08 12:14:34;;;;;;;;;;;;;;;;;;4990963;28;19936;-87
2023/03/08 12:17:08;;;;;;;;;;;;;;;;;;4974468;28;19926;-88
2023/03/08 12:19:40;;;;;;;;;;;;;;;;;;4994559;28;20009;-88
2023/03/08 12:22:21;;;;;;;;;;;;;;;;;;4994413;28;20551;-89
2023/03/08 12:24:46;;;;;;;;;;;;;;;;;;4995614;28;19944;-90
2023/03/08 12:27:16;;;;;;;;;;;;;;;;;;4995612;28;20366;-89
2023/03/08 12:29:48;;;;;;;;;;;;;;;;;;4995530;28;19922;-89
2023/03/08 12:32:16;;;;;;;;;;;;;;;;;;4977495;28;20345;-89
2023/03/08 12:34:42;;;;;;;;;;;;;;;;;;4977274;28;19968;-89
2023/03/08 12:37:38;;;;;;;;;;;;;;;;;;4978276;28;19918;-88
2023/03/08 12:40:06;;;;;;;;;;;;;;;;;;4975006;28;20002;-89
2023/03/08 12:42:35;;;;;;;;;;;;;;;;;;4995313;28;19917;-88
2023/03/08 12:45:18;;;;;;;;;;;;;;;;;;4995249;28;19965;-86
2023/03/08 12:47:55;;;;;;;;;;;;;;;;;;4995165;28;20013;-88
2023/03/08 12:50:23;;;;;;;;;;;;;;;;;;4995006;28;19968;-88
2023/03/08 12:52:48;;;;;;;;;;;;;;;;;;4976932;28;20382;-88
2023/03/08 12:55:34;;;;;;;;;;;;;;;;;;5011371;28;20008;-89
2023/03/08 12:58:01;;;;;;;;;;;;;;;;;;4996332;28;19933;-88
2023/03/08 13:00:30;;;;;;;;;;;;;;;;;;4979857;28;20449;-89
2023/03/08 13:02:58;;;;;;;;;;;;;;;;;;4982564;28;19977;-87
2023/03/08 13:05:29;;;;;;;;;;;;;;;;;;4973180;28;19930;-89
2023/03/08 13:08:13;;;;;;;;;;;;;;;;;;4989052;28;19922;-89
2023/03/08 13:10:39;;;;;;;;;;;;;;;;;;4994818;28;20312;-89
2023/03/08 13:13:08;;;;;;;;;;;;;;;;;;4994512;28;20016;-89
2023/03/08 13:15:33;;;;;;;;;;;;;;;;;;4994528;28;19936;-88
2023/03/08 13:18:02;;;;;;;;;;;;;;;;;;4994591;28;19998;-88
2023/03/08 13:20:42;;;;;;;;;;;;;;;;;;4977387;28;19957;-89
2023/03/08 13:23:10;;;;;;;;;;;;;;;;;;4977022;28;20408;-88
2023/03/08 13:25:54;;;;;;;;;;;;;;;;;;4976844;28;19918;-89
2023/03/08 13:28:21;;;;;;;;;;;;;;;;;;4976871;28;19917;-88
2023/03/08 13:30:54;;;;;;;;;;;;;;;;;;4994416;28;19924;-88
2023/03/08 13:33:27;;;;;;;;;;;;;;;;;;4993298;28;19980;-88
2023/03/08 13:36:03;;;;;;;;;;;;;;;;;;4977727;28;20457;-88
2023/03/08 13:38:30;;;;;;;;;;;;;;;;;;4994313;28;19925;-87
2023/03/08 13:40:59;;;;;;;;;;;;;;;;;;4994314;28;20008;-89
2023/03/08 13:43:31;;;;;;;;;;;;;;;;;;4994107;28;20076;-88
2023/03/08 13:45:58;;;;;;;;;;;;;;;;;;4976741;28;19918;-88
2023/03/08 13:48:26;;;;;;;;;;;;;;;;;;4976648;28;19921;-89
2023/03/08 13:50:51;;;;;;;;;;;;;;;;;;4976660;28;19918;-89
2023/03/08 13:53:18;;;;;;;;;;;;;;;;;;4995447;28;19925;-89
2023/03/08 13:55:45;;;;;;;;;;;;;;;;;;4994047;28;19937;-88
2023/03/08 13:58:19;;;;;;;;;;;;;;;;;;4994133;28;19929;-88
2023/03/08 14:00:44;;;;;;;;;;;;;;;;;;4993985;28;20445;-89
2023/03/08 14:03:19;;;;;;;;;;;;;;;;;;4976420;28;20020;-89
2023/03/08 14:05:45;;;;;;;;;;;;;;;;;;4992952;28;19945;-88
2023/03/08 14:08:18;;;;;;;;;;;;;;;;;;4993840;28;20301;-89
2023/03/08 14:10:44;;;;;;;;;;;;;;;;;;4993936;28;19925;-89
2023/03/08 14:13:19;;;;;;;;;;;;;;;;;;4994411;28;19918;-88
2023/03/08 14:15:48;;;;;;;;;;;;;;;;;;4994859;28;19929;-89
2023/03/08 14:18:21;;;;;;;;;;;;;;;;;;4976624;28;20396;-90
2023/03/08 14:21:00;;;;;;;;;;;;;;;;;;4999142;28;19921;-91
2023/03/08 14:23:25;;;;;;;;;;;;;;;;;;4997916;28;19926;-89
2023/03/08 14:25:57;;;;;;;;;;;;;;;;;;5005214;28;19910;-88
2023/03/08 14:28:41;;;;;;;;;;;;;;;;;;4992377;28;20267;-90
2023/03/08 14:31:22;;;;;;;;;;;;;;;;;;4963876;28;20016;-90
2023/03/08 14:33:54;;;;;;;;;;;;;;;;;;4989457;28;19929;-87
2023/03/08 14:36:20;;;;;;;;;;;;;;;;;;4977031;28;20453;-87
2023/03/08 14:38:47;;;;;;;;;;;;;;;;;;4976579;28;20010;-89
2023/03/08 14:41:14;;;;;;;;;;;;;;;;;;4977139;28;19957;-87
2023/03/08 14:43:45;;;;;;;;;;;;;;;;;;4978064;28;20373;-90
2023/03/08 14:46:16;;;;;;;;;;;;;;;;;;4976930;28;20018;-87
2023/03/08 14:48:42;;;;;;;;;;;;;;;;;;4977430;28;19922;-87
2023/03/08 14:51:17;;;;;;;;;;;;;;;;;;4977586;28;20353;-88
2023/03/08 14:53:53;;;;;;;;;;;;;;;;;;4978083;28;19914;-87
2023/03/08 14:56:19;;;;;;;;;;;;;;;;;;4978016;28;19918;-88
2023/03/08 14:58:47;;;;;;;;;;;;;;;;;;4976872;28;20021;-87
2023/03/08 15:01:22;;;;;;;;;;;;;;;;;;4977816;28;19918;-89
2023/03/08 15:03:47;;;;;;;;;;;;;;;;;;4977987;28;19918;-87
2023/03/08 15:06:16;;;;;;;;;;;;;;;;;;4977570;28;19922;-88
2023/03/08 15:08:42;;;;;;;;;;;;;;;;;;4979308;28;19918;-89
2023/03/08 15:11:07;;;;;;;;;;;;;;;;;;4983924;28;19918;-88
2023/03/08 15:13:33;;;;;;;;;;;;;;;;;;4976312;28;20030;-87
2023/03/08 15:15:58;;;;;;;;;;;;;;;;;;4985882;28;19961;-89
2023/03/08 15:18:23;;;;;;;;;;;;;;;;;;4987484;28;19973;-86
2023/03/08 15:20:50;;;;;;;;;;;;;;;;;;4987246;28;19929;-88
2023/03/08 15:23:15;;;;;;;;;;;;;;;;;;4989534;28;19954;-86
2023/03/08 15:25:41;;;;;;;;;;;;;;;;;;4989461;28;19925;-87
2023/03/08 15:28:11;;;;;;;;;;;;;;;;;;4992089;28;19932;-87
2023/03/08 15:30:37;;;;;;;;;;;;;;;;;;4997221;28;19929;-87
2023/03/08 15:33:02;;;;;;;;;;;;;;;;;;4996525;28;19922;-87
2023/03/08 15:35:28;;;;;;;;;;;;;;;;;;4986337;28;19918;-86
2023/03/08 15:37:53;;;;;;;;;;;;;;;;;;4988215;28;19926;-88
2023/03/08 15:40:20;;;;;;;;;;;;;;;;;;4975554;28;19980;-85
2023/03/08 15:42:46;;;;;;;;;;;;;;;;;;4996512;28;19922;-87
2023/03/08 15:45:11;;;;;;;;;;;;;;;;;;4984969;28;20411;-86
2023/03/08 15:47:37;;;;;;;;;;;;;;;;;;5009563;28;19976;-85
2023/03/08 15:50:04;;;;;;;;;;;;;;;;;;4996325;28;19923;-86
2023/03/08 15:52:29;;;;;;;;;;;;;;;;;;5014917;28;19917;-87
2023/03/08 15:54:55;;;;;;;;;;;;;;;;;;5014765;28;19917;-86
2023/03/08 15:57:20;;;;;;;;;;;;;;;;;;5015199;28;19924;-84
2023/03/08 15:59:46;;;;;;;;;;;;;;;;;;5015761;28;19948;-88
2023/03/08 16:02:13;;;;;;;;;;;;;;;;;;4997035;28;19917;-87
2023/03/08 16:04:44;;;;;;;;;;;;;;;;;;4997960;28;20374;-88
2023/03/08 16:07:17;;;;;;;;;;;;;;;;;;5015801;28;20377;-86
2023/03/08 16:09:43;;;;;;;;;;;;;;;;;;5011161;28;19929;-87
2023/03/08 16:12:08;;;;;;;;;;;;;;;;;;4973692;28;19922;-89
2023/03/08 16:14:34;;;;;;;;;;;;;;;;;;4967511;28;19930;-88
2023/03/08 16:17:00;;;;;;;;;;;;;;;;;;4975751;28;19981;-87
2023/03/08 16:19:29;;;;;;;;;;;;;;;;;;4994325;28;20330;-89
2023/03/08 16:21:55;;;;;;;;;;;;;;;;;;4986274;28;19921;-87
2023/03/08 16:24:20;;;;;;;;;;;;;;;;;;4987027;28;20446;-88
2023/03/08 16:26:45;;;;;;;;;;;;;;;;;;4991350;28;19921;-89
2023/03/08 16:29:11;;;;;;;;;;;;;;;;;;5014942;28;20016;-89
2023/03/08 16:31:36;;;;;;;;;;;;;;;;;;4997438;28;20369;-86
2023/03/08 16:34:03;;;;;;;;;;;;;;;;;;5015350;28;20390;-89
2023/03/08 16:36:28;;;;;;;;;;;;;;;;;;4997556;28;19917;-88
2023/03/08 16:38:54;;;;;;;;;;;;;;;;;;4997380;28;19991;-87
2023/03/08 16:41:21;;;;;;;;;;;;;;;;;;4997345;28;19914;-87
2023/03/08 16:43:47;;;;;;;;;;;;;;;;;;4996947;28;19944;-88
2023/03/08 16:46:13;;;;;;;;;;;;;;;;;;4997247;28;20377;-88
2023/03/08 16:48:38;;;;;;;;;;;;;;;;;;4996313;28;19925;-88
2023/03/08 16:51:04;;;;;;;;;;;;;;;;;;4996679;28;19928;-87